createdAt,value
2024-03-05T00:00:12.209Z,7.65
2024-03-05T00:02:40.124Z,7.62
2024-03-05T00:05:08.778Z,7.57
2024-03-05T00:07:37.049Z,7.58
2024-03-05T00:10:08.642Z,7.62
2024-03-05T00:12:35.599Z,7.62
2024-03-05T00:15:03.031Z,7.63
2024-03-05T00:17:29.765Z,7.62
2024-03-05T00:19:56.556Z,7.65
2024-03-05T00:22:23.401Z,7.61
2024-03-05T00:24:50.109Z,7.54
2024-03-05T00:27:16.782Z,7.46
2024-03-05T00:29:43.573Z,7.43
2024-03-05T00:32:10.357Z,7.35
2024-03-05T00:34:37.038Z,7.30
2024-03-05T00:37:03.764Z,7.30
2024-03-05T00:39:30.422Z,7.25
2024-03-05T00:41:57.086Z,7.22
2024-03-05T00:44:23.719Z,7.19
2024-03-05T00:46:50.529Z,7.16
2024-03-05T00:49:18.175Z,7.13
2024-03-05T00:51:44.928Z,7.16
2024-03-05T00:54:13.513Z,7.14
2024-03-05T00:56:40.217Z,7.18
2024-03-05T00:59:06.866Z,7.20
2024-03-05T01:01:35.044Z,7.23
2024-03-05T01:04:01.714Z,7.25
2024-03-05T01:06:28.501Z,7.26
2024-03-05T01:08:55.181Z,7.27
2024-03-05T01:11:21.920Z,7.26
2024-03-05T01:13:48.711Z,7.23
2024-03-05T01:16:15.489Z,7.25
2024-03-05T01:18:43.188Z,7.23
2024-03-05T01:21:09.945Z,7.21
2024-03-05T01:23:36.719Z,7.22
2024-03-05T01:26:04.276Z,7.20
2024-03-05T01:28:31.329Z,7.19
2024-03-05T01:31:00.480Z,7.22
2024-03-05T01:33:27.489Z,7.21
2024-03-05T01:35:54.243Z,7.18
2024-03-05T01:38:21.855Z,7.15
2024-03-05T01:40:48.734Z,7.12
2024-03-05T01:43:16.636Z,7.19
2024-03-05T01:45:44.104Z,7.23
2024-03-05T01:48:13.187Z,7.30
2024-03-05T01:50:40.129Z,7.36
2024-03-05T01:53:09.826Z,7.38
2024-03-05T01:55:38.991Z,7.38
2024-03-05T01:58:07.382Z,7.41
2024-03-05T02:00:37.565Z,7.43
2024-03-05T02:03:04.448Z,7.42
2024-03-05T02:05:31.193Z,7.38
2024-03-05T02:07:58.950Z,7.42
2024-03-05T02:10:26.159Z,7.39
2024-03-05T02:12:53.498Z,7.42
2024-03-05T02:15:20.870Z,7.44
2024-03-05T02:17:47.615Z,7.46
2024-03-05T02:20:15.144Z,7.44
2024-03-05T02:22:42.880Z,7.45
2024-03-05T02:25:11.013Z,7.35
2024-03-05T02:27:39.462Z,7.33
2024-03-05T02:30:11.735Z,7.32
2024-03-05T02:32:43.010Z,7.27
2024-03-05T02:35:11.063Z,7.23
2024-03-05T02:37:42.130Z,7.23
2024-03-05T02:40:10.212Z,7.20
2024-03-05T02:42:37.883Z,7.19
2024-03-05T02:45:08.679Z,7.19
2024-03-05T02:47:37.488Z,7.18
2024-03-05T02:50:09.145Z,7.16
2024-03-05T02:52:36.989Z,7.16
2024-03-05T02:55:04.446Z,7.15
2024-03-05T02:57:31.047Z,7.13
2024-03-05T02:59:57.950Z,7.17
2024-03-05T03:02:24.907Z,7.17
2024-03-05T03:04:52.909Z,7.11
2024-03-05T03:07:19.998Z,7.15
2024-03-05T03:09:47.755Z,7.13
2024-03-05T03:12:14.521Z,7.14
2024-03-05T03:14:45.816Z,7.14
2024-03-05T03:17:12.835Z,7.13
2024-03-05T03:19:39.601Z,7.12
2024-03-05T03:22:06.460Z,7.11
2024-03-05T03:24:33.120Z,7.13
2024-03-05T03:26:59.993Z,7.12
2024-03-05T03:29:27.839Z,7.08
2024-03-05T03:31:56.555Z,7.09
2024-03-05T03:34:23.730Z,7.07
2024-03-05T03:36:50.471Z,7.04
2024-03-05T03:39:25.252Z,7.00
2024-03-05T03:41:54.747Z,6.97
2024-03-05T03:44:23.920Z,6.96
2024-03-05T03:46:51.934Z,6.96
2024-03-05T03:49:25.292Z,6.93
2024-03-05T03:51:55.447Z,6.96
2024-03-05T03:54:25.729Z,6.98
2024-03-05T03:56:53.297Z,7.01
2024-03-05T03:59:21.486Z,7.04
2024-03-05T04:01:51.897Z,7.06
2024-03-05T04:04:18.838Z,7.10
2024-03-05T04:06:49.331Z,7.10
2024-03-05T04:09:16.180Z,7.07
2024-03-05T04:11:44.008Z,7.04
2024-03-05T04:14:11.033Z,7.03
2024-03-05T04:16:41.708Z,7.03
2024-03-05T04:19:08.716Z,7.03
2024-03-05T04:21:42.866Z,7.08
2024-03-05T04:24:15.906Z,7.10
2024-03-05T04:26:43.457Z,7.12
2024-03-05T04:29:17.757Z,7.12
2024-03-05T04:31:50.692Z,7.17
2024-03-05T04:34:21.589Z,7.17
2024-03-05T04:36:55.585Z,7.13
2024-03-05T04:39:23.861Z,7.10
2024-03-05T04:41:50.546Z,7.09
2024-03-05T04:44:17.445Z,7.03
2024-03-05T04:46:44.172Z,7.02
2024-03-05T04:49:10.909Z,6.99
2024-03-05T04:51:38.364Z,6.95
2024-03-05T04:54:05.407Z,6.91
2024-03-05T04:56:32.335Z,6.90
2024-03-05T04:58:59.321Z,6.87
2024-03-05T05:01:26.221Z,6.84
2024-03-05T05:03:53.076Z,6.83
2024-03-05T05:06:19.823Z,6.80
2024-03-05T05:08:47.180Z,6.77
2024-03-05T05:11:14.001Z,6.75
2024-03-05T05:13:44.438Z,6.70
2024-03-05T05:16:12.897Z,6.70
2024-03-05T05:18:39.981Z,6.66
2024-03-05T05:21:08.932Z,6.62
2024-03-05T05:23:36.153Z,6.56
2024-03-05T05:26:03.489Z,6.56
2024-03-05T05:28:30.415Z,6.54
2024-03-05T05:30:57.198Z,6.53
2024-03-05T05:33:23.895Z,6.53
2024-03-05T05:35:51.606Z,6.52
2024-03-05T05:38:18.390Z,6.49
2024-03-05T05:40:45.093Z,6.50
2024-03-05T05:43:12.689Z,6.49
2024-03-05T05:45:39.352Z,6.48
2024-03-05T05:48:06.738Z,6.48
2024-03-05T05:50:33.658Z,6.49
2024-03-05T05:53:00.963Z,6.48
2024-03-05T05:55:28.517Z,6.48
2024-03-05T05:57:56.988Z,6.46
2024-03-05T06:00:34.504Z,6.45
2024-03-05T06:03:02.433Z,6.46
2024-03-05T06:05:32.845Z,6.44
2024-03-05T06:08:01.246Z,6.47
2024-03-05T06:10:30.927Z,6.47
2024-03-05T06:12:58.294Z,6.48
2024-03-05T06:15:25.424Z,6.52
2024-03-05T06:17:53.190Z,6.54
2024-03-05T06:20:20.053Z,6.56
2024-03-05T06:22:47.292Z,6.58
2024-03-05T06:25:18.179Z,6.55
2024-03-05T06:27:45.454Z,6.58
2024-03-05T06:30:19.307Z,6.59
2024-03-05T06:32:50.255Z,6.60
2024-03-05T06:35:19.176Z,6.59
2024-03-05T06:37:46.679Z,6.61
2024-03-05T06:40:15.258Z,6.62
2024-03-05T06:42:43.261Z,6.60
2024-03-05T06:45:10.239Z,6.63
2024-03-05T06:47:40.723Z,6.69
2024-03-05T06:50:09.770Z,6.78
2024-03-05T06:52:55.075Z,6.80
2024-03-05T06:55:40.391Z,6.86
2024-03-05T06:58:08.506Z,6.94
2024-03-05T07:00:35.560Z,7.00
2024-03-05T07:03:06.378Z,7.04
2024-03-05T07:05:33.770Z,7.02
2024-03-05T07:08:03.601Z,6.97
2024-03-05T07:10:30.425Z,6.99
2024-03-05T07:12:57.492Z,7.03
2024-03-05T07:15:24.690Z,7.05
2024-03-05T07:17:51.532Z,7.09
2024-03-05T07:20:23.866Z,7.16
2024-03-05T07:22:52.606Z,7.22
2024-03-05T07:25:19.365Z,7.28
2024-03-05T07:27:48.082Z,7.35
2024-03-05T07:30:19.055Z,7.40
2024-03-05T07:32:49.601Z,7.41
2024-03-05T07:35:18.894Z,7.45
2024-03-05T07:37:46.788Z,7.46
2024-03-05T07:40:21.396Z,7.44
2024-03-05T07:42:53.192Z,7.45
2024-03-05T07:45:23.906Z,7.44
2024-03-05T07:47:51.709Z,7.45
2024-03-05T07:50:18.661Z,7.45
2024-03-05T07:52:47.841Z,7.49
2024-03-05T07:55:21.650Z,7.57
2024-03-05T07:57:58.025Z,7.60
2024-03-05T08:00:25.704Z,7.65
2024-03-05T08:02:56.210Z,7.71
2024-03-05T08:05:24.554Z,7.76
2024-03-05T08:07:52.687Z,7.85
2024-03-05T08:10:19.521Z,7.91
2024-03-05T08:12:48.257Z,7.99
2024-03-05T08:15:16.563Z,8.08
2024-03-05T08:17:48.237Z,8.15
2024-03-05T08:20:19.955Z,8.25
2024-03-05T08:22:48.059Z,8.33
2024-03-05T08:25:17.341Z,8.42
2024-03-05T08:27:46.014Z,8.51
2024-03-05T08:30:17.585Z,8.67
2024-03-05T08:32:45.137Z,8.82
2024-03-05T08:35:15.437Z,9.02
2024-03-05T08:37:47.627Z,9.24
2024-03-05T08:40:16.621Z,9.25
2024-03-05T08:42:47.772Z,9.16
2024-03-05T08:45:25.333Z,9.09
2024-03-05T08:47:53.979Z,9.03
2024-03-05T08:50:22.087Z,9.03
2024-03-05T08:52:50.389Z,9.07
2024-03-05T08:55:19.481Z,9.11
2024-03-05T08:57:46.966Z,9.13
2024-03-05T09:00:28.114Z,9.16
2024-03-05T09:03:04.247Z,9.10
2024-03-05T09:05:33.008Z,9.03
2024-03-05T09:07:59.936Z,8.92
2024-03-05T09:10:27.060Z,8.88
2024-03-05T09:12:55.984Z,8.90
2024-03-05T09:15:22.707Z,8.87
2024-03-05T09:17:49.672Z,8.93
2024-03-05T09:20:16.702Z,8.95
2024-03-05T09:22:46.329Z,8.88
2024-03-05T09:25:14.460Z,8.85
2024-03-05T09:27:48.261Z,8.82
2024-03-05T09:30:19.781Z,8.73
2024-03-05T09:32:49.154Z,8.87
2024-03-05T09:35:17.074Z,9.02
2024-03-05T09:37:59.276Z,9.18
2024-03-05T09:40:26.226Z,9.37
2024-03-05T09:42:59.636Z,9.54
2024-03-05T09:45:29.930Z,9.69
2024-03-05T09:47:56.869Z,9.75
2024-03-05T09:50:28.556Z,9.82
2024-03-05T09:52:55.423Z,9.97
2024-03-05T09:55:23.597Z,10.05
2024-03-05T09:57:50.590Z,10.21
2024-03-05T10:00:20.668Z,10.29
2024-03-05T10:02:52.751Z,10.39
2024-03-05T10:05:20.486Z,10.44
2024-03-05T10:07:50.865Z,10.52
2024-03-05T10:10:22.964Z,10.67
2024-03-05T10:12:53.904Z,10.81
2024-03-05T10:15:24.765Z,10.90
2024-03-05T10:17:54.750Z,10.95
2024-03-05T10:20:35.605Z,11.02
2024-03-05T10:23:05.316Z,11.04
2024-03-05T10:25:36.956Z,10.96
2024-03-05T10:28:04.839Z,10.91
2024-03-05T10:30:36.442Z,10.97
2024-03-05T10:33:05.353Z,11.05
2024-03-05T10:35:36.969Z,11.19
2024-03-05T10:38:13.569Z,11.27
2024-03-05T10:40:41.452Z,11.37
2024-03-05T10:43:09.886Z,11.35
2024-03-05T10:45:42.210Z,11.32
2024-03-05T10:48:13.703Z,11.28
2024-03-05T10:50:51.027Z,11.38
2024-03-05T10:53:18.413Z,11.41
2024-03-05T10:55:46.337Z,11.44
2024-03-05T10:58:15.204Z,11.44
2024-03-05T11:00:45.258Z,11.52
2024-03-05T11:03:16.003Z,11.61
2024-03-05T11:05:48.989Z,11.80
2024-03-05T11:08:22.465Z,11.74
2024-03-05T11:10:54.482Z,11.52
2024-03-05T11:13:22.860Z,11.35
2024-03-05T11:15:52.645Z,11.26
2024-03-05T11:18:36.580Z,11.24
2024-03-05T11:21:13.916Z,11.29
2024-03-05T11:23:44.284Z,11.43
2024-03-05T11:26:22.643Z,11.45
2024-03-05T11:28:50.377Z,11.42
2024-03-05T11:31:20.790Z,11.41
2024-03-05T11:34:04.055Z,11.38
2024-03-05T11:36:35.481Z,11.37
2024-03-05T11:39:09.549Z,11.29
2024-03-05T11:41:39.032Z,11.29
2024-03-05T11:44:06.623Z,11.42
2024-03-05T11:46:53.681Z,11.59
2024-03-05T11:49:21.379Z,11.70
2024-03-05T11:51:48.992Z,11.83
2024-03-05T11:54:20.805Z,11.93
2024-03-05T11:57:00.808Z,12.12
2024-03-05T11:59:34.724Z,12.19
2024-03-05T12:02:01.626Z,12.28
2024-03-05T12:04:28.411Z,12.33
2024-03-05T12:07:08.224Z,12.38
2024-03-05T12:09:39.409Z,12.40
2024-03-05T12:12:07.568Z,12.25
2024-03-05T12:14:36.145Z,12.27
2024-03-05T12:17:05.688Z,12.30
2024-03-05T12:19:32.991Z,12.24
2024-03-05T12:22:01.259Z,12.28
2024-03-05T12:24:32.533Z,12.29
2024-03-05T12:27:00.276Z,12.31
2024-03-05T12:29:34.983Z,12.39
2024-03-05T12:32:14.449Z,12.32
2024-03-05T12:34:47.845Z,12.40
2024-03-05T12:37:16.652Z,12.37
2024-03-05T12:39:43.438Z,12.31
2024-03-05T12:42:14.752Z,12.25
2024-03-05T12:44:42.822Z,12.30
2024-03-05T12:47:22.465Z,12.33
2024-03-05T12:49:52.177Z,12.39
2024-03-05T12:52:27.917Z,12.58
2024-03-05T12:55:04.432Z,12.66
2024-03-05T12:57:33.474Z,12.82
2024-03-05T13:00:02.401Z,12.94
2024-03-05T13:02:29.638Z,12.88
2024-03-05T13:04:58.940Z,12.90
2024-03-05T13:07:26.993Z,12.96
2024-03-05T13:09:55.547Z,12.84
2024-03-05T13:12:22.388Z,12.70
2024-03-05T13:14:52.184Z,12.63
2024-03-05T13:17:22.422Z,12.46
2024-03-05T13:19:49.199Z,12.37
2024-03-05T13:22:21.800Z,12.32
2024-03-05T13:24:48.832Z,12.43
2024-03-05T13:27:15.493Z,12.62
2024-03-05T13:29:42.233Z,12.85
2024-03-05T13:32:08.906Z,12.84
2024-03-05T13:34:35.781Z,12.68
2024-03-05T13:37:02.521Z,12.81
2024-03-05T13:39:30.600Z,12.86
2024-03-05T13:41:57.460Z,12.89
2024-03-05T13:44:24.811Z,12.85
2024-03-05T13:46:52.985Z,12.94
2024-03-05T13:49:21.789Z,12.91
2024-03-05T13:51:48.846Z,13.08
2024-03-05T13:54:20.531Z,13.21
2024-03-05T13:56:47.476Z,13.14
2024-03-05T13:59:15.171Z,13.05
2024-03-05T14:01:44.912Z,12.87
2024-03-05T14:04:11.775Z,12.77
2024-03-05T14:06:42.650Z,12.73
2024-03-05T14:09:12.696Z,12.68
2024-03-05T14:11:49.089Z,12.63
2024-03-05T14:14:21.470Z,12.54
2024-03-05T14:16:48.642Z,12.51
2024-03-05T14:19:15.547Z,12.55
2024-03-05T14:21:42.199Z,12.54
2024-03-05T14:24:09.003Z,12.53
2024-03-05T14:26:35.804Z,12.60
2024-03-05T14:29:05.214Z,12.64
2024-03-05T14:31:34.180Z,12.71
2024-03-05T14:34:01.145Z,12.60
2024-03-05T14:36:33.092Z,12.60
2024-03-05T14:39:02.929Z,12.64
2024-03-05T14:41:29.746Z,12.75
2024-03-05T14:43:56.468Z,12.74
2024-03-05T14:46:23.743Z,12.64
2024-03-05T14:48:50.609Z,12.59
2024-03-05T14:51:17.289Z,12.56
2024-03-05T14:53:44.016Z,12.58
2024-03-05T14:56:10.945Z,12.49
2024-03-05T14:58:38.858Z,12.52
2024-03-05T15:01:05.982Z,12.42
2024-03-05T15:03:33.430Z,12.36
2024-03-05T15:06:00.199Z,12.45
2024-03-05T15:08:26.911Z,12.37
2024-03-05T15:10:53.773Z,12.29
2024-03-05T15:13:20.809Z,12.28
2024-03-05T15:15:49.410Z,12.27
2024-03-05T15:18:16.319Z,12.35
2024-03-05T15:20:45.325Z,12.41
2024-03-05T15:23:13.764Z,12.45
2024-03-05T15:25:40.599Z,12.40
2024-03-05T15:28:09.507Z,12.42
2024-03-05T15:30:36.936Z,12.50
2024-03-05T15:33:05.591Z,12.51
2024-03-05T15:35:32.586Z,12.51
2024-03-05T15:37:59.955Z,12.53
2024-03-05T15:40:27.927Z,12.59
2024-03-05T15:42:56.635Z,12.64
2024-03-05T15:45:30.973Z,12.63
2024-03-05T15:47:59.723Z,12.62
2024-03-05T15:50:31.117Z,12.68
2024-03-05T15:53:04.221Z,12.71
2024-03-05T15:55:31.640Z,12.66
2024-03-05T15:58:02.377Z,12.59
2024-03-05T16:00:39.745Z,12.51
2024-03-05T16:03:08.697Z,12.45
2024-03-05T16:05:43.360Z,12.34
2024-03-05T16:08:22.245Z,12.28
2024-03-05T16:10:50.054Z,12.22
2024-03-05T16:13:17.855Z,12.19
2024-03-05T16:15:47.160Z,12.19
2024-03-05T16:18:15.067Z,12.15
2024-03-05T16:20:41.802Z,12.14
2024-03-05T16:23:09.195Z,12.07
2024-03-05T16:25:40.767Z,12.04
2024-03-05T16:28:10.898Z,12.03
2024-03-05T16:30:39.258Z,11.96
2024-03-05T16:33:07.184Z,11.89
2024-03-05T16:35:37.205Z,11.80
2024-03-05T16:38:05.915Z,11.76
2024-03-05T16:40:36.980Z,11.74
2024-03-05T16:43:06.705Z,11.75
2024-03-05T16:45:35.679Z,11.73
2024-03-05T16:48:06.970Z,11.68
2024-03-05T16:50:34.293Z,11.71
2024-03-05T16:53:02.150Z,11.74
2024-03-05T16:55:29.267Z,11.78
2024-03-05T16:58:02.978Z,11.82
2024-03-05T17:00:42.424Z,11.84
2024-03-05T17:03:12.806Z,11.90
2024-03-05T17:05:42.052Z,11.92
2024-03-05T17:08:15.722Z,11.97
2024-03-05T17:10:45.783Z,11.99
2024-03-05T17:13:19.911Z,11.97
2024-03-05T17:15:52.601Z,11.91
2024-03-05T17:18:20.457Z,11.86
2024-03-05T17:20:48.155Z,11.77
2024-03-05T17:23:23.156Z,11.62
2024-03-05T17:25:52.999Z,11.56
2024-03-05T17:28:20.585Z,11.47
2024-03-05T17:30:49.692Z,11.42
2024-03-05T17:33:17.285Z,11.38
2024-03-05T17:35:44.263Z,11.33
2024-03-05T17:38:14.162Z,11.27
2024-03-05T17:40:44.487Z,11.22
2024-03-05T17:43:11.242Z,11.13
2024-03-05T17:45:37.961Z,11.09
2024-03-05T17:48:08.817Z,11.06
2024-03-05T17:50:36.573Z,10.99
2024-03-05T17:53:06.878Z,10.91
2024-03-05T17:55:36.015Z,10.84
2024-03-05T17:58:05.567Z,10.78
2024-03-05T18:00:43.009Z,10.73
2024-03-05T18:03:11.971Z,10.65
2024-03-05T18:05:39.182Z,10.60
2024-03-05T18:08:06.076Z,10.52
2024-03-05T18:10:36.306Z,10.46
2024-03-05T18:13:06.285Z,10.38
2024-03-05T18:15:33.675Z,10.29
2024-03-05T18:18:01.231Z,10.18
2024-03-05T18:20:30.222Z,10.13
2024-03-05T18:23:00.920Z,10.05
2024-03-05T18:25:35.653Z,9.99
2024-03-05T18:28:03.776Z,9.92
2024-03-05T18:30:34.303Z,9.86
2024-03-05T18:33:07.967Z,9.80
2024-03-05T18:35:36.083Z,9.72
2024-03-05T18:38:16.529Z,9.64
2024-03-05T18:40:51.460Z,9.53
2024-03-05T18:43:20.739Z,9.46
2024-03-05T18:45:47.519Z,9.39
2024-03-05T18:48:14.540Z,9.32
2024-03-05T18:50:41.488Z,9.24
2024-03-05T18:53:09.363Z,9.13
2024-03-05T18:55:37.755Z,9.05
2024-03-05T18:58:08.105Z,8.95
2024-03-05T19:00:38.072Z,8.86
2024-03-05T19:03:05.990Z,8.83
2024-03-05T19:05:34.636Z,8.76
2024-03-05T19:08:01.714Z,8.71
2024-03-05T19:10:28.464Z,8.66
2024-03-05T19:12:55.418Z,8.56
2024-03-05T19:15:23.807Z,8.54
2024-03-05T19:17:50.785Z,8.49
2024-03-05T19:20:18.010Z,8.40
2024-03-05T19:22:44.818Z,8.36
2024-03-05T19:25:12.965Z,8.29
2024-03-05T19:27:42.634Z,8.21
2024-03-05T19:30:18.345Z,8.19
2024-03-05T19:32:46.507Z,8.13
2024-03-05T19:35:18.576Z,8.10
2024-03-05T19:37:48.429Z,8.07
2024-03-05T19:40:20.585Z,8.06
2024-03-05T19:42:57.219Z,8.00
2024-03-05T19:45:25.043Z,7.95
2024-03-05T19:47:52.333Z,7.92
2024-03-05T19:50:19.745Z,7.90
2024-03-05T19:52:49.432Z,7.88
2024-03-05T19:55:16.524Z,7.89
2024-03-05T19:57:44.488Z,7.87
2024-03-05T20:00:24.802Z,7.90
2024-03-05T20:02:52.784Z,7.89
2024-03-05T20:05:20.893Z,7.92
2024-03-05T20:07:47.834Z,7.90
2024-03-05T20:10:15.752Z,7.93
2024-03-05T20:12:42.510Z,7.94
2024-03-05T20:15:10.194Z,7.96
2024-03-05T20:17:39.923Z,7.96
2024-03-05T20:20:10.297Z,7.96
2024-03-05T20:22:41.306Z,7.95
2024-03-05T20:25:08.512Z,7.97
2024-03-05T20:27:35.376Z,7.97
2024-03-05T20:30:02.485Z,7.98
2024-03-05T20:32:32.369Z,7.99
2024-03-05T20:35:00.730Z,8.01
2024-03-05T20:37:28.926Z,8.04
2024-03-05T20:39:58.327Z,8.03
2024-03-05T20:42:24.991Z,7.97
2024-03-05T20:44:51.692Z,7.97
2024-03-05T20:47:18.556Z,7.98
2024-03-05T20:49:46.808Z,7.99
2024-03-05T20:52:13.599Z,8.02
2024-03-05T20:54:40.339Z,8.04
2024-03-05T20:57:07.085Z,8.07
2024-03-05T20:59:35.280Z,8.07
2024-03-05T21:02:11.042Z,8.08
2024-03-05T21:04:38.761Z,8.12
2024-03-05T21:07:06.386Z,8.12
2024-03-05T21:09:34.596Z,8.15
2024-03-05T21:12:01.747Z,8.19
2024-03-05T21:14:28.717Z,8.21
2024-03-05T21:16:55.483Z,8.26
2024-03-05T21:19:23.272Z,8.29
2024-03-05T21:21:50.605Z,8.33
2024-03-05T21:24:17.346Z,8.37
2024-03-05T21:26:54.735Z,8.39
2024-03-05T21:29:30.671Z,8.41
2024-03-05T21:31:57.587Z,8.43
2024-03-05T21:34:24.326Z,8.43
2024-03-05T21:36:51.018Z,8.45
2024-03-05T21:39:17.724Z,8.48
2024-03-05T21:41:45.649Z,8.50
2024-03-05T21:44:17.287Z,8.54
2024-03-05T21:46:49.769Z,8.54
2024-03-05T21:49:16.601Z,8.55
2024-03-05T21:51:43.350Z,8.56
2024-03-05T21:54:10.012Z,8.54
2024-03-05T21:56:36.752Z,8.56
2024-03-05T21:59:04.755Z,8.57
2024-03-05T22:01:31.600Z,8.57
2024-03-05T22:03:58.253Z,8.55
2024-03-05T22:06:25.248Z,8.56
2024-03-05T22:08:52.576Z,8.55
2024-03-05T22:11:19.570Z,8.52
2024-03-05T22:13:46.326Z,8.50
2024-03-05T22:16:13.054Z,8.48
2024-03-05T22:18:40.481Z,8.48
2024-03-05T22:21:07.880Z,8.44
2024-03-05T22:23:35.009Z,8.46
2024-03-05T22:26:02.219Z,8.43
2024-03-05T22:28:31.485Z,8.42
2024-03-05T22:30:59.385Z,8.42
2024-03-05T22:33:26.113Z,8.40
2024-03-05T22:35:53.436Z,8.42
2024-03-05T22:38:20.134Z,8.41
2024-03-05T22:40:46.950Z,8.41
2024-03-05T22:43:15.205Z,8.41
2024-03-05T22:45:41.878Z,8.39
2024-03-05T22:48:08.727Z,8.38
2024-03-05T22:50:35.362Z,8.42
2024-03-05T22:53:03.224Z,8.42
2024-03-05T22:55:29.986Z,8.42
2024-03-05T22:57:56.742Z,8.43
2024-03-05T23:00:24.471Z,8.45
2024-03-05T23:02:54.622Z,8.45
2024-03-05T23:05:22.183Z,8.45
2024-03-05T23:07:49.307Z,8.44
2024-03-05T23:10:17.583Z,8.47
2024-03-05T23:12:45.177Z,8.44
2024-03-05T23:15:16.500Z,8.42
2024-03-05T23:17:44.300Z,8.37
2024-03-05T23:20:12.414Z,8.44
2024-03-05T23:22:40.184Z,8.44
2024-03-05T23:25:08.477Z,8.42
2024-03-05T23:27:36.039Z,8.42
2024-03-05T23:30:04.447Z,8.40
2024-03-05T23:32:32.637Z,8.40
2024-03-05T23:35:03.405Z,8.42
2024-03-05T23:37:30.193Z,8.40
2024-03-05T23:39:58.124Z,8.40
2024-03-05T23:42:25.889Z,8.40
2024-03-05T23:44:53.761Z,8.40
2024-03-05T23:47:20.738Z,8.41
2024-03-05T23:49:47.435Z,8.42
2024-03-05T23:52:14.176Z,8.42
2024-03-05T23:54:42.668Z,8.38
2024-03-05T23:57:10.339Z,8.39
2024-03-05T23:59:40.531Z,8.40
